createdAt,value
2017-12-19T00:01:24.771Z,11.20
2017-12-19T00:03:57.474Z,13.53
2017-12-19T00:06:31.024Z,13.17
2017-12-19T00:09:03.844Z,12.50
2017-12-19T00:11:36.615Z,14.17
2017-12-19T00:14:09.128Z,14.10
2017-12-19T00:16:41.648Z,14.73
2017-12-19T00:19:14.134Z,13.20
2017-12-19T00:21:49.371Z,13.53
2017-12-19T00:24:21.863Z,15.50
2017-12-19T00:26:54.371Z,13.93
2017-12-19T00:29:27.377Z,13.57
2017-12-19T00:32:00.474Z,15.83
2017-12-19T00:34:33.760Z,14.37
2017-12-19T00:37:06.615Z,14.10
2017-12-19T00:39:39.428Z,14.13
2017-12-19T00:42:13.132Z,15.63
2017-12-19T02:09:51.843Z,23.20
2017-12-19T02:12:24.502Z,25.63
2017-12-19T02:14:57.224Z,23.87
2017-12-19T02:17:29.913Z,25.87
2017-12-19T02:20:02.654Z,28.20
2017-12-19T02:22:35.352Z,27.90
2017-12-19T02:25:07.906Z,27.40
2017-12-19T02:27:40.396Z,24.93
2017-12-19T02:30:13.344Z,28.00
2017-12-19T02:32:47.236Z,27.00
2017-12-19T02:35:20.337Z,26.03
2017-12-19T02:37:53.360Z,29.80
2017-12-19T02:40:26.409Z,27.60
2017-12-19T02:43:10.987Z,27.17
2017-12-19T02:45:43.729Z,35.33
2017-12-19T02:48:18.480Z,29.13
2017-12-19T02:50:51.209Z,30.30
2017-12-19T02:53:24.204Z,31.30
2017-12-19T02:55:57.286Z,33.43
2017-12-19T02:58:30.273Z,33.07
2017-12-19T03:01:03.344Z,30.10
2017-12-19T03:03:38.677Z,30.93
2017-12-19T03:06:11.776Z,30.23
2017-12-19T03:08:44.761Z,35.60
2017-12-19T03:11:17.955Z,36.57
2017-12-19T03:13:50.694Z,35.20
2017-12-19T03:16:23.230Z,31.20
2017-12-19T03:18:56.407Z,36.10
2017-12-19T03:21:29.750Z,37.27
2017-12-19T03:24:03.398Z,39.03
2017-12-19T03:26:36.732Z,42.27
2017-12-19T03:29:09.865Z,42.20
2017-12-19T03:31:42.895Z,37.70
2017-12-19T03:34:16.033Z,41.67
2017-12-19T03:36:48.833Z,39.40
2017-12-19T03:39:21.344Z,43.20
2017-12-19T03:41:53.856Z,45.23
2017-12-19T03:44:26.342Z,44.43
2017-12-19T03:46:58.876Z,51.37
2017-12-19T03:49:31.826Z,51.90
2017-12-19T03:52:04.419Z,46.87
2017-12-19T03:54:37.035Z,53.87
2017-12-19T03:57:09.654Z,59.03
2017-12-19T03:59:42.186Z,45.77
2017-12-19T04:02:14.944Z,52.53
2017-12-19T04:04:47.427Z,52.33
2017-12-19T04:07:19.992Z,50.83
2017-12-19T04:09:52.474Z,51.80
2017-12-19T04:12:24.988Z,58.43
2017-12-19T04:14:57.492Z,48.17
2017-12-19T04:17:30.019Z,67.03
2017-12-19T04:20:02.496Z,56.63
2017-12-19T04:22:35.009Z,62.00
2017-12-19T04:25:07.553Z,63.97
2017-12-19T04:27:40.165Z,55.63
2017-12-19T04:30:12.656Z,65.00
2017-12-19T04:32:46.800Z,56.27
2017-12-19T04:35:20.272Z,80.10
2017-12-19T04:37:53.439Z,72.30
2017-12-19T04:40:25.985Z,70.73
2017-12-19T04:42:58.517Z,67.10
2017-12-19T04:45:30.999Z,68.90
2017-12-19T04:48:03.776Z,74.63
2017-12-19T04:50:36.259Z,60.03
2017-12-19T04:53:08.780Z,59.63
2017-12-19T04:55:41.267Z,75.63
2017-12-19T04:58:13.783Z,67.63
2017-12-19T05:00:47.193Z,62.10
2017-12-19T05:03:19.704Z,79.70
2017-12-19T05:05:52.191Z,87.10
2017-12-19T05:08:24.899Z,70.07
2017-12-19T05:10:57.374Z,63.00
2017-12-19T05:13:29.879Z,70.70
2017-12-19T05:16:02.439Z,77.67
2017-12-19T05:18:34.954Z,102.80
2017-12-19T05:21:07.436Z,74.20
2017-12-19T05:23:39.940Z,80.20
2017-12-19T05:26:12.523Z,70.93
2017-12-19T05:28:47.191Z,79.73
2017-12-19T05:31:19.765Z,86.93
2017-12-19T05:33:52.412Z,81.30
2017-12-19T05:36:26.015Z,102.10
2017-12-19T05:38:58.616Z,84.00
2017-12-19T05:41:31.374Z,84.27
2017-12-19T05:44:03.981Z,121.17
2017-12-19T05:46:37.257Z,94.97
2017-12-19T05:49:10.191Z,113.47
2017-12-19T05:51:42.750Z,77.33
2017-12-19T05:54:16.665Z,82.20
2017-12-19T05:56:49.149Z,89.63
2017-12-19T05:59:21.661Z,93.53
2017-12-19T06:01:54.159Z,112.77
2017-12-19T06:04:26.671Z,108.40
2017-12-19T06:06:59.176Z,88.67
2017-12-19T06:09:31.703Z,113.23
2017-12-19T06:12:04.204Z,95.93
2017-12-19T06:14:36.735Z,131.70
2017-12-19T06:17:09.220Z,117.23
2017-12-19T06:19:41.790Z,112.83
2017-12-19T06:22:14.328Z,156.07
2017-12-19T06:24:50.129Z,185.20
2017-12-19T06:27:22.627Z,187.40
2017-12-19T06:29:55.186Z,184.43
2017-12-19T06:32:27.685Z,119.63
2017-12-19T06:35:00.210Z,142.20
2017-12-19T06:37:32.702Z,107.77
2017-12-19T06:40:05.232Z,161.17
2017-12-19T06:42:37.728Z,112.73
2017-12-19T06:45:10.300Z,192.63
2017-12-19T06:47:42.804Z,148.43
2017-12-19T06:50:16.513Z,169.70
2017-12-19T06:52:49.006Z,222.57
2017-12-19T06:55:22.396Z,132.00
2017-12-19T06:57:54.884Z,122.00
2017-12-19T07:00:27.396Z,149.73
2017-12-19T07:02:59.892Z,94.73
2017-12-19T07:05:32.430Z,91.43
2017-12-19T07:08:04.939Z,97.67
2017-12-19T07:10:37.454Z,106.63
2017-12-19T07:13:09.935Z,98.63
2017-12-19T07:15:42.447Z,145.13
2017-12-19T07:18:17.056Z,100.00
2017-12-19T07:20:50.611Z,100.10
2017-12-19T07:23:23.105Z,145.53
2017-12-19T07:25:55.619Z,60.13
2017-12-19T07:28:28.117Z,124.37
2017-12-19T07:31:00.633Z,84.67
2017-12-19T07:33:33.125Z,106.07
2017-12-19T07:36:05.634Z,105.27
2017-12-19T07:38:38.119Z,93.63
2017-12-19T07:41:10.636Z,131.43
2017-12-19T07:43:43.126Z,99.87
2017-12-19T07:46:18.017Z,80.23
2017-12-19T07:48:50.514Z,160.07
2017-12-19T07:51:23.033Z,268.90
2017-12-19T07:56:53.004Z,114.27
2017-12-19T07:59:25.502Z,173.77
2017-12-19T08:01:58.021Z,197.63
2017-12-19T08:04:30.517Z,196.03
2017-12-19T08:07:03.044Z,157.23
2017-12-19T08:09:35.539Z,182.53
2017-12-19T08:12:08.065Z,123.33
2017-12-19T08:14:40.558Z,241.63
2017-12-19T08:17:13.076Z,136.83
2017-12-19T08:19:48.058Z,140.20
2017-12-19T08:22:20.585Z,124.30
2017-12-19T08:24:53.087Z,106.20
2017-12-19T08:27:25.615Z,132.87
2017-12-19T08:29:58.121Z,173.40
2017-12-19T08:32:30.667Z,80.00
2017-12-19T08:35:03.268Z,152.37
2017-12-19T08:37:35.789Z,109.43
2017-12-19T08:40:08.280Z,129.30
2017-12-19T08:42:40.789Z,123.53
2017-12-19T08:45:13.281Z,132.53
2017-12-19T08:47:45.799Z,76.90
2017-12-19T08:50:18.318Z,106.13
2017-12-19T08:52:50.827Z,117.00
2017-12-19T08:55:23.438Z,145.90
2017-12-19T08:57:55.946Z,73.50
2017-12-19T09:00:28.792Z,111.77
2017-12-19T09:03:01.453Z,81.63
2017-12-19T09:05:33.973Z,87.53
2017-12-19T09:08:06.494Z,119.73
2017-12-19T09:10:39.003Z,128.67
2017-12-19T09:13:11.508Z,56.17
2017-12-19T09:15:43.999Z,151.07
2017-12-19T09:18:18.113Z,122.57
2017-12-19T09:20:50.627Z,94.47
2017-12-19T09:23:23.135Z,80.67
2017-12-19T09:31:27.450Z,64.67
2017-12-19T09:34:01.984Z,93.20
2017-12-19T09:36:40.683Z,60.23
2017-12-19T09:39:14.717Z,46.07
2017-12-19T09:41:47.489Z,98.90
2017-12-19T09:44:20.122Z,77.03
2017-12-19T09:46:53.883Z,56.33
2017-12-19T09:49:29.354Z,83.17
2017-12-19T09:52:08.157Z,48.03
2017-12-19T09:54:41.454Z,52.73
2017-12-19T09:57:13.958Z,68.47
2017-12-19T09:59:50.187Z,69.50
2017-12-19T10:02:24.998Z,94.43
2017-12-19T10:05:00.083Z,47.73
2017-12-19T10:07:34.943Z,70.73
2017-12-19T10:10:07.634Z,70.53
2017-12-19T10:12:40.135Z,50.23
2017-12-19T10:15:12.672Z,54.50
2017-12-19T10:17:45.237Z,43.40
2017-12-19T10:20:23.662Z,45.40
2017-12-19T10:22:57.811Z,54.23
2017-12-19T10:25:30.841Z,51.67
2017-12-19T10:28:03.421Z,41.03
2017-12-19T10:30:37.553Z,51.33
2017-12-19T10:33:10.085Z,56.67
2017-12-19T10:35:42.610Z,49.93
2017-12-19T10:38:15.183Z,43.17
2017-12-19T10:40:51.872Z,53.77
2017-12-19T10:43:25.315Z,43.50
2017-12-19T10:46:00.508Z,56.43
2017-12-19T10:48:33.445Z,42.80
2017-12-19T10:51:06.464Z,46.60
2017-12-19T10:53:38.988Z,37.43
2017-12-19T10:56:11.546Z,39.30
2017-12-19T10:58:44.104Z,79.07
2017-12-19T11:01:19.065Z,51.20
2017-12-19T11:04:01.069Z,49.57
2017-12-19T11:06:36.916Z,44.07
2017-12-19T11:09:09.488Z,51.50
2017-12-19T11:11:42.318Z,65.47
2017-12-19T11:14:14.858Z,40.37
2017-12-19T11:16:49.007Z,38.13
2017-12-19T11:19:24.238Z,35.20
2017-12-19T11:21:57.722Z,47.13
2017-12-19T11:24:36.555Z,54.20
2017-12-19T11:27:09.071Z,46.57
2017-12-19T11:29:41.651Z,50.30
2017-12-19T11:32:14.404Z,36.07
2017-12-19T11:34:47.894Z,43.37
2017-12-19T11:37:21.643Z,45.17
2017-12-19T11:39:54.260Z,45.10
2017-12-19T11:42:27.061Z,63.57
2017-12-19T11:44:59.763Z,42.03
2017-12-19T11:47:33.145Z,45.43
2017-12-19T11:50:05.726Z,40.70
2017-12-19T11:52:38.337Z,43.10
2017-12-19T11:55:10.860Z,42.37
2017-12-19T11:57:43.428Z,52.07
2017-12-19T12:00:16.386Z,51.20
2017-12-19T12:02:51.714Z,39.87
2017-12-19T12:05:24.366Z,57.73
2017-12-19T12:07:56.864Z,41.77
2017-12-19T12:10:29.405Z,45.37
2017-12-19T12:13:02.052Z,63.47
2017-12-19T12:15:34.572Z,44.53
2017-12-19T12:18:07.083Z,38.57
2017-12-19T12:20:39.605Z,42.73
2017-12-19T12:23:12.110Z,46.67
2017-12-19T12:25:44.640Z,42.77
2017-12-19T12:28:17.883Z,44.53
2017-12-19T12:30:51.210Z,55.77
2017-12-19T12:33:23.934Z,51.23
2017-12-19T12:35:56.552Z,37.13
2017-12-19T12:38:29.154Z,51.40
2017-12-19T12:41:01.882Z,49.73
2017-12-19T12:43:34.371Z,64.33
2017-12-19T12:46:06.895Z,47.87
2017-12-19T12:48:39.408Z,50.10
2017-12-19T12:51:11.928Z,60.83
2017-12-19T12:53:44.431Z,44.37
2017-12-19T12:56:17.464Z,55.17
2017-12-19T12:58:50.102Z,57.13
2017-12-19T13:01:22.653Z,46.27
2017-12-19T13:03:55.388Z,64.23
2017-12-19T13:06:27.957Z,58.70
2017-12-19T13:09:00.521Z,70.43
2017-12-19T13:11:33.027Z,53.93
2017-12-19T13:14:05.789Z,53.17
2017-12-19T13:16:38.420Z,50.50
2017-12-19T13:19:10.923Z,54.17
2017-12-19T13:21:47.296Z,42.03
2017-12-19T13:24:20.178Z,66.47
2017-12-19T13:26:52.850Z,43.07
2017-12-19T13:29:25.330Z,60.13
2017-12-19T13:31:58.345Z,63.70
2017-12-19T13:34:30.868Z,42.43
2017-12-19T13:37:03.413Z,50.17
2017-12-19T13:39:35.920Z,57.67
2017-12-19T13:42:08.444Z,56.13
2017-12-19T13:44:40.957Z,44.47
2017-12-19T13:47:13.515Z,43.57
2017-12-19T13:49:47.064Z,41.43
2017-12-19T13:52:20.037Z,44.13
2017-12-19T13:54:53.126Z,50.23
2017-12-19T13:57:26.092Z,47.10
2017-12-19T13:59:58.697Z,39.03
2017-12-19T14:02:31.361Z,59.00
2017-12-19T14:05:03.872Z,39.50
2017-12-19T14:07:36.402Z,51.03
2017-12-19T14:10:08.904Z,41.80
2017-12-19T14:12:41.421Z,44.93
2017-12-19T14:15:13.932Z,36.17
2017-12-19T14:17:46.540Z,32.73
2017-12-19T14:20:21.287Z,41.77
2017-12-19T14:22:53.940Z,40.97
2017-12-19T14:25:26.448Z,48.10
2017-12-19T14:27:58.994Z,39.20
2017-12-19T14:30:31.516Z,45.10
2017-12-19T14:33:04.046Z,45.90
2017-12-19T14:35:36.531Z,42.93
2017-12-19T14:38:09.123Z,42.10
2017-12-19T14:40:41.716Z,38.80
2017-12-19T14:43:14.324Z,42.70
2017-12-19T14:45:47.862Z,50.03
2017-12-19T14:48:20.840Z,40.33
2017-12-19T14:50:53.379Z,46.43
2017-12-19T14:53:25.947Z,52.43
2017-12-19T14:55:58.517Z,48.57
2017-12-19T14:58:31.079Z,54.47
2017-12-19T15:01:03.561Z,60.77
2017-12-19T15:03:36.082Z,50.87
2017-12-19T15:06:08.594Z,50.33
2017-12-19T15:08:41.136Z,51.17
2017-12-19T15:11:13.632Z,66.93
2017-12-19T15:13:47.837Z,52.93
2017-12-19T15:16:20.492Z,45.53
2017-12-19T15:18:53.211Z,59.47
2017-12-19T15:21:25.776Z,47.70
2017-12-19T15:23:58.411Z,51.40
2017-12-19T15:26:30.930Z,64.00
2017-12-19T15:29:03.444Z,66.17
2017-12-19T15:31:36.098Z,60.90
2017-12-19T15:34:08.799Z,42.13
2017-12-19T15:36:41.282Z,51.40
2017-12-19T15:39:13.807Z,52.97
2017-12-19T15:41:46.576Z,46.30
2017-12-19T15:44:19.109Z,67.97
2017-12-19T15:46:52.396Z,52.93
2017-12-19T15:49:25.143Z,48.53
2017-12-19T15:51:57.769Z,60.23
2017-12-19T15:54:30.369Z,56.03
2017-12-19T15:57:02.949Z,54.50
2017-12-19T15:59:35.476Z,94.77
2017-12-19T16:02:07.975Z,76.23
2017-12-19T16:04:40.484Z,55.30
2017-12-19T16:07:13.025Z,41.77
2017-12-19T16:09:45.548Z,62.67
2017-12-19T16:12:19.088Z,123.27
2017-12-19T16:14:51.624Z,52.43
2017-12-19T16:17:24.180Z,54.80
2017-12-19T16:19:56.786Z,50.67
2017-12-19T16:22:30.426Z,61.97
2017-12-19T16:25:03.089Z,44.13
2017-12-19T16:27:35.629Z,61.43
2017-12-19T16:30:08.137Z,45.07
2017-12-19T16:32:40.638Z,77.63
2017-12-19T16:35:13.275Z,58.27
2017-12-19T16:37:45.772Z,50.93
2017-12-19T16:40:19.033Z,81.73
2017-12-19T16:42:51.531Z,43.80
2017-12-19T16:45:24.692Z,39.10
2017-12-19T16:47:57.342Z,46.37
2017-12-19T16:50:29.944Z,58.40
2017-12-19T16:53:02.466Z,74.80
2017-12-19T16:55:34.975Z,100.33
2017-12-19T16:58:07.485Z,101.20
2017-12-19T17:00:40.010Z,62.63
2017-12-19T17:03:12.507Z,69.50
2017-12-19T17:05:45.101Z,62.67
2017-12-19T17:08:17.796Z,56.10
2017-12-19T17:10:51.210Z,97.83
2017-12-19T17:13:23.759Z,47.77
2017-12-19T17:15:56.427Z,78.73
2017-12-19T17:18:28.962Z,159.83
2017-12-19T17:21:01.554Z,124.87
2017-12-19T17:23:34.107Z,70.20
2017-12-19T17:26:06.709Z,88.93
2017-12-19T17:28:39.205Z,75.13
2017-12-19T17:31:11.726Z,86.53
2017-12-19T17:33:44.277Z,122.67
2017-12-19T17:36:17.515Z,73.83
2017-12-19T17:38:50.034Z,112.40
2017-12-19T17:41:22.558Z,145.93
2017-12-19T17:43:55.094Z,171.73
2017-12-19T17:46:27.660Z,109.97
2017-12-19T17:49:00.281Z,86.97
2017-12-19T17:51:32.829Z,133.23
2017-12-19T17:54:05.360Z,127.53
2017-12-19T17:56:37.860Z,104.27
2017-12-19T17:59:10.367Z,132.70
2017-12-19T18:01:42.905Z,113.43
2017-12-19T18:04:15.428Z,262.83
2017-12-19T18:06:48.855Z,78.13
2017-12-19T18:09:21.361Z,125.97
2017-12-19T18:11:53.897Z,104.43
2017-12-19T18:14:26.410Z,71.13
2017-12-19T18:16:58.930Z,90.63
2017-12-19T18:19:31.436Z,96.43
2017-12-19T18:22:03.955Z,117.77
2017-12-19T18:24:36.464Z,71.00
2017-12-19T18:27:08.976Z,84.83
2017-12-19T18:29:41.473Z,79.57
2017-12-19T18:32:14.017Z,89.63
2017-12-19T18:34:46.538Z,182.57
2017-12-19T18:37:19.607Z,94.33
2017-12-19T18:39:52.610Z,85.63
2017-12-19T18:42:25.134Z,119.60
2017-12-19T18:44:57.859Z,148.37
2017-12-19T18:47:30.499Z,118.87
2017-12-19T18:50:03.181Z,152.40
2017-12-19T18:52:35.791Z,249.40
2017-12-19T18:55:08.297Z,95.80
2017-12-19T18:57:40.810Z,151.90
2017-12-19T19:00:13.652Z,158.90
2017-12-19T19:02:47.196Z,250.93
2017-12-19T19:05:19.796Z,95.17
2017-12-19T19:07:52.422Z,119.20
2017-12-19T19:10:24.919Z,102.20
2017-12-19T19:12:57.432Z,129.33
2017-12-19T19:15:29.941Z,95.47
2017-12-19T19:18:02.566Z,184.10
2017-12-19T19:20:35.078Z,140.20
2017-12-19T19:23:07.594Z,117.33
2017-12-19T19:25:40.091Z,159.70
2017-12-19T19:28:12.599Z,137.30
2017-12-19T19:30:45.092Z,139.37
2017-12-19T19:33:17.615Z,151.13
2017-12-19T19:35:50.225Z,156.87
2017-12-19T19:38:22.889Z,163.57
2017-12-19T19:40:55.499Z,177.47
2017-12-19T19:43:28.084Z,104.80
2017-12-19T19:46:00.583Z,149.93
2017-12-19T19:48:33.096Z,114.10
2017-12-19T19:51:05.669Z,202.77
2017-12-19T19:53:38.186Z,213.23
2017-12-19T19:56:10.682Z,79.60
2017-12-19T19:58:43.267Z,199.27
2017-12-19T20:01:15.766Z,139.07
2017-12-19T20:03:49.281Z,150.73
2017-12-19T20:06:21.879Z,136.93
2017-12-19T20:08:54.590Z,143.73
2017-12-19T20:11:27.148Z,125.60
2017-12-19T20:13:59.672Z,125.73
2017-12-19T20:16:32.198Z,136.83
2017-12-19T20:19:04.743Z,79.07
2017-12-19T20:21:37.238Z,147.40
2017-12-19T20:24:09.760Z,149.70
2017-12-19T20:26:42.246Z,250.83
2017-12-19T20:29:14.799Z,115.50
2017-12-19T20:31:47.760Z,108.67
2017-12-19T20:34:20.285Z,132.73
2017-12-19T20:36:52.818Z,159.50
2017-12-19T20:39:25.349Z,90.00
2017-12-19T20:41:57.991Z,224.43
2017-12-19T20:44:30.504Z,146.27
2017-12-19T20:47:02.983Z,85.67
2017-12-19T20:49:37.548Z,214.13
2017-12-19T20:52:10.058Z,331.50
2017-12-19T20:54:42.559Z,240.67
2017-12-19T20:57:15.048Z,456.33
2017-12-19T20:59:47.653Z,160.47
2017-12-19T21:02:20.546Z,103.23
2017-12-19T21:04:53.202Z,85.93
2017-12-19T21:07:25.737Z,257.43
2017-12-19T21:09:58.409Z,169.63
2017-12-19T21:12:30.902Z,117.13
2017-12-19T21:15:03.462Z,260.97
2017-12-19T21:17:35.948Z,368.17
2017-12-19T21:20:08.770Z,140.20
2017-12-19T21:22:41.346Z,227.67
2017-12-19T21:25:13.951Z,112.67
2017-12-19T21:27:46.691Z,302.17
2017-12-19T21:30:19.255Z,83.10
2017-12-19T21:32:52.014Z,72.40
2017-12-19T21:35:24.557Z,148.83
2017-12-19T21:37:57.068Z,392.13
2017-12-19T21:40:29.603Z,190.97
2017-12-19T21:43:02.115Z,397.67
2017-12-19T21:45:34.631Z,223.47
2017-12-19T21:48:07.128Z,393.23
2017-12-19T21:50:39.638Z,328.43
2017-12-19T21:53:12.141Z,296.77
2017-12-19T21:55:44.658Z,158.80
2017-12-19T21:58:17.157Z,171.93
2017-12-19T22:00:50.524Z,141.60
2017-12-19T22:03:23.263Z,195.63
2017-12-19T22:05:55.807Z,282.47
2017-12-19T22:08:28.368Z,195.13
2017-12-19T22:11:01.927Z,125.53
2017-12-19T22:13:34.420Z,341.23
2017-12-19T22:16:06.997Z,217.50
2017-12-19T22:18:39.493Z,195.50
2017-12-19T22:21:12.007Z,122.67
2017-12-19T22:23:44.502Z,135.57
2017-12-19T22:26:17.029Z,285.63
2017-12-19T22:28:56.180Z,80.13
2017-12-19T22:31:23.732Z,81.77
2017-12-19T22:33:56.636Z,161.27
2017-12-19T22:36:29.204Z,105.00
2017-12-19T22:39:01.707Z,96.83
2017-12-19T22:41:34.229Z,215.63
2017-12-19T22:44:09.408Z,151.97
2017-12-19T22:46:42.109Z,253.83
2017-12-19T22:49:14.664Z,364.70
2017-12-19T22:51:47.184Z,375.00
2017-12-19T22:54:20.454Z,474.60
2017-12-19T22:56:53.149Z,113.07
2017-12-19T22:59:25.809Z,287.73
2017-12-19T23:01:58.358Z,104.10
2017-12-19T23:04:30.887Z,376.47
2017-12-19T23:07:03.384Z,180.13
2017-12-19T23:09:36.028Z,247.10
2017-12-19T23:12:08.519Z,360.53
2017-12-19T23:14:41.031Z,335.47
2017-12-19T23:17:13.524Z,396.00
2017-12-19T23:19:46.041Z,102.50
2017-12-19T23:22:19.544Z,394.57
2017-12-19T23:24:52.065Z,390.30
2017-12-19T23:27:24.860Z,422.50
2017-12-19T23:29:57.384Z,374.87
2017-12-19T23:32:29.883Z,205.47
2017-12-19T23:35:02.400Z,137.23
2017-12-19T23:37:34.901Z,173.13
2017-12-19T23:40:07.415Z,143.70
2017-12-19T23:42:39.920Z,252.17
2017-12-19T23:45:12.427Z,247.80
2017-12-19T23:47:51.220Z,385.90
2017-12-19T23:50:25.564Z,538.13
2017-12-19T23:52:58.206Z,137.07
2017-12-19T23:55:30.808Z,404.77
2017-12-19T23:58:03.684Z,315.90
